createdAt,value
2023-03-12T00:00:11.466Z,25.48
2023-03-12T00:02:39.116Z,24.50
2023-03-12T00:05:07.126Z,23.48
2023-03-12T00:07:36.674Z,24.38
2023-03-12T00:10:07.612Z,20.83
2023-03-12T00:12:35.589Z,21.13
2023-03-12T00:15:03.932Z,26.50
2023-03-12T00:17:31.484Z,21.27
2023-03-12T00:19:59.226Z,23.67
2023-03-12T00:22:27.122Z,25.75
2023-03-12T00:24:56.766Z,23.92
2023-03-12T00:27:25.920Z,26.25
2023-03-12T00:29:53.882Z,28.10
2023-03-12T00:32:22.553Z,29.42
2023-03-12T00:34:56.326Z,33.00
2023-03-12T00:37:24.022Z,28.10
2023-03-12T00:39:51.698Z,27.77
2023-03-12T00:42:20.220Z,25.38
2023-03-12T00:44:48.171Z,29.77
2023-03-12T00:47:16.094Z,36.38
2023-03-12T00:49:43.627Z,34.60
2023-03-12T00:52:11.506Z,39.45
2023-03-12T00:54:39.552Z,29.73
2023-03-12T00:57:07.149Z,31.08
2023-03-12T00:59:40.289Z,22.42
2023-03-12T01:02:09.102Z,16.95
2023-03-12T01:04:37.044Z,18.63
2023-03-12T01:07:04.921Z,14.85
2023-03-12T01:09:33.176Z,18.70
2023-03-12T01:12:00.882Z,13.68
2023-03-12T01:14:28.640Z,13.48
2023-03-12T01:16:56.869Z,11.18
2023-03-12T01:19:24.661Z,12.93
2023-03-12T01:21:52.401Z,12.60
2023-03-12T01:24:19.962Z,12.13
2023-03-12T01:26:47.683Z,8.30
2023-03-12T01:29:15.232Z,11.95
2023-03-12T01:31:42.846Z,11.35
2023-03-12T01:34:12.315Z,10.18
2023-03-12T01:36:41.412Z,19.08
2023-03-12T01:39:09.407Z,10.63
2023-03-12T01:41:37.650Z,18.63
2023-03-12T01:44:06.340Z,8.93
2023-03-12T01:46:35.650Z,19.73
2023-03-12T01:49:17.533Z,12.27
2023-03-12T01:51:54.186Z,18.98
2023-03-12T01:54:33.638Z,15.55
2023-03-12T01:57:04.950Z,8.25
2023-03-12T01:59:56.758Z,13.77
2023-03-12T02:02:28.734Z,23.23
2023-03-12T02:05:47.685Z,21.70
2023-03-12T02:08:17.280Z,17.60
2023-03-12T02:10:45.842Z,13.57
2023-03-12T02:13:14.454Z,22.73
2023-03-12T02:15:47.632Z,17.38
2023-03-12T02:18:19.372Z,21.65
2023-03-12T02:21:07.300Z,16.17
2023-03-12T02:24:12.845Z,30.70
2023-03-12T02:26:41.372Z,24.92
2023-03-12T02:29:10.410Z,26.20
2023-03-12T02:31:45.875Z,24.35
2023-03-12T02:34:14.422Z,25.05
2023-03-12T02:36:41.932Z,24.70
2023-03-12T02:39:12.595Z,14.98
2023-03-12T02:41:44.151Z,25.42
2023-03-12T02:44:31.899Z,23.88
2023-03-12T02:47:01.214Z,26.95
2023-03-12T02:49:31.920Z,23.58
2023-03-12T02:52:01.245Z,29.90
2023-03-12T02:54:29.862Z,23.00
2023-03-12T02:56:57.821Z,21.08
2023-03-12T02:59:26.881Z,20.67
2023-03-12T03:01:59.812Z,35.05
2023-03-12T03:04:30.054Z,20.65
2023-03-12T03:06:58.067Z,31.92
2023-03-12T03:09:26.203Z,26.60
2023-03-12T03:11:53.996Z,35.88
2023-03-12T03:14:23.541Z,16.58
2023-03-12T03:16:52.097Z,37.75
2023-03-12T03:19:23.123Z,26.85
2023-03-12T03:21:50.775Z,30.25
2023-03-12T03:24:18.606Z,45.92
2023-03-12T03:26:46.289Z,28.25
2023-03-12T03:29:16.953Z,30.07
2023-03-12T03:31:44.809Z,36.25
2023-03-12T03:34:12.837Z,39.35
2023-03-12T03:36:40.620Z,23.60
2023-03-12T03:39:12.812Z,36.80
2023-03-12T03:41:40.410Z,35.45
2023-03-12T03:44:08.344Z,38.22
2023-03-12T03:46:37.913Z,25.02
2023-03-12T03:49:08.467Z,26.20
2023-03-12T03:51:38.093Z,21.13
2023-03-12T03:54:10.935Z,12.90
2023-03-12T03:56:40.850Z,21.52
2023-03-12T03:59:09.325Z,17.05
2023-03-12T04:01:39.801Z,22.30
2023-03-12T04:04:07.678Z,35.47
2023-03-12T04:06:36.907Z,27.27
2023-03-12T04:09:04.650Z,30.20
2023-03-12T04:11:34.396Z,23.80
2023-03-12T04:14:03.362Z,48.50
2023-03-12T04:16:33.523Z,28.83
2023-03-12T04:19:02.501Z,22.90
2023-03-12T04:21:30.151Z,44.67
2023-03-12T04:23:58.141Z,25.27
2023-03-12T04:26:31.109Z,28.80
2023-03-12T04:29:01.063Z,33.03
2023-03-12T04:31:29.783Z,29.90
2023-03-12T04:33:57.404Z,30.67
2023-03-12T04:36:26.311Z,35.38
2023-03-12T04:38:56.678Z,26.15
2023-03-12T04:41:29.103Z,64.85
2023-03-12T04:44:12.750Z,19.85
2023-03-12T04:46:41.733Z,33.20
2023-03-12T04:49:11.531Z,33.83
2023-03-12T04:54:08.918Z,27.50
2023-03-12T04:56:38.304Z,38.30
2023-03-12T04:59:06.452Z,39.53
2023-03-12T05:01:36.894Z,42.38
2023-03-12T05:04:10.156Z,35.97
2023-03-12T05:06:37.675Z,31.83
2023-03-12T05:09:05.622Z,40.53
2023-03-12T05:11:33.693Z,41.00
2023-03-12T05:14:01.631Z,30.35
2023-03-12T05:16:30.230Z,47.00
2023-03-12T05:18:58.274Z,27.52
2023-03-12T05:21:26.903Z,33.15
2023-03-12T05:23:57.316Z,31.95
2023-03-12T05:26:31.542Z,24.88
2023-03-12T05:29:14.164Z,38.63
2023-03-12T05:31:41.996Z,24.10
2023-03-12T05:34:12.999Z,36.00
2023-03-12T05:36:43.518Z,23.02
2023-03-12T05:39:12.272Z,32.30
2023-03-12T05:41:40.941Z,30.02
2023-03-12T05:44:16.170Z,16.58
2023-03-12T05:46:50.216Z,19.20
2023-03-12T05:49:18.168Z,39.00
2023-03-12T05:51:50.563Z,25.10
2023-03-12T05:54:20.369Z,28.17
2023-03-12T05:56:50.673Z,26.45
2023-03-12T05:59:18.967Z,26.45
2023-03-12T06:01:47.155Z,21.38
2023-03-12T06:04:15.189Z,24.13
2023-03-12T06:06:43.028Z,28.58
2023-03-12T06:09:11.163Z,35.95
2023-03-12T06:11:39.157Z,22.80
2023-03-12T06:14:06.949Z,39.63
2023-03-12T06:16:36.746Z,34.50
2023-03-12T06:19:05.235Z,28.40
2023-03-12T06:21:36.015Z,26.23
2023-03-12T06:24:06.375Z,26.95
2023-03-12T06:26:49.757Z,37.92
2023-03-12T06:29:17.619Z,35.92
2023-03-12T06:31:45.551Z,42.22
2023-03-12T06:34:13.403Z,21.15
2023-03-12T06:36:40.983Z,34.08
2023-03-12T06:39:09.787Z,35.70
2023-03-12T06:41:37.431Z,34.13
2023-03-12T06:44:06.362Z,23.85
2023-03-12T06:46:34.413Z,22.95
2023-03-12T06:49:02.071Z,25.45
2023-03-12T06:51:29.719Z,36.00
2023-03-12T06:53:57.273Z,32.47
2023-03-12T06:56:25.316Z,28.23
2023-03-12T06:58:52.992Z,29.33
2023-03-12T07:01:20.978Z,41.85
2023-03-12T07:03:48.831Z,27.48
2023-03-12T07:06:21.493Z,30.45
2023-03-12T07:08:49.205Z,33.22
2023-03-12T07:11:17.862Z,31.05
2023-03-12T07:13:45.510Z,37.40
2023-03-12T07:16:15.201Z,36.95
2023-03-12T07:18:42.954Z,30.45
2023-03-12T07:21:10.514Z,26.80
2023-03-12T07:23:38.208Z,22.05
2023-03-12T07:26:06.109Z,27.52
2023-03-12T07:28:33.983Z,28.50
2023-03-12T07:31:04.151Z,20.00
2023-03-12T07:33:32.501Z,24.30
2023-03-12T07:36:01.083Z,41.28
2023-03-12T07:38:28.975Z,29.92
2023-03-12T07:40:58.496Z,32.33
2023-03-12T07:43:26.657Z,27.90
2023-03-12T07:45:55.544Z,34.50
2023-03-12T07:48:23.369Z,21.33
2023-03-12T07:50:51.096Z,37.67
2023-03-12T07:53:19.412Z,20.65
2023-03-12T07:55:48.472Z,22.25
2023-03-12T07:58:17.504Z,27.02
2023-03-12T08:00:45.828Z,26.60
2023-03-12T08:03:14.043Z,36.83
2023-03-12T08:05:42.150Z,38.40
2023-03-12T08:08:10.180Z,26.52
2023-03-12T08:10:38.150Z,19.38
2023-03-12T08:13:06.002Z,26.70
2023-03-12T08:15:33.846Z,24.35
2023-03-12T08:18:01.544Z,30.05
2023-03-12T08:20:30.403Z,21.45
2023-03-12T08:22:58.210Z,24.70
2023-03-12T08:25:25.925Z,25.45
2023-03-12T08:27:54.180Z,19.10
2023-03-12T08:30:21.821Z,37.25
2023-03-12T08:32:49.582Z,36.88
2023-03-12T08:35:17.271Z,26.42
2023-03-12T08:37:45.038Z,24.05
2023-03-12T08:40:13.574Z,30.55
2023-03-12T08:42:43.317Z,31.25
2023-03-12T08:45:16.096Z,15.93
2023-03-12T08:47:44.517Z,24.10
2023-03-12T08:50:14.399Z,30.33
2023-03-12T08:52:42.203Z,33.67
2023-03-12T08:55:11.714Z,32.55
2023-03-12T08:57:40.020Z,36.38
2023-03-12T09:00:12.048Z,29.48
2023-03-12T09:02:39.748Z,13.35
2023-03-12T09:05:07.802Z,28.45
2023-03-12T09:07:35.620Z,22.60
2023-03-12T09:10:03.822Z,30.25
2023-03-12T09:12:31.444Z,19.48
2023-03-12T09:15:03.514Z,30.45
2023-03-12T09:17:32.836Z,28.33
2023-03-12T09:20:00.956Z,23.92
2023-03-12T09:22:30.648Z,19.95
2023-03-12T09:24:58.236Z,31.13
2023-03-12T09:27:25.868Z,22.10
2023-03-12T09:30:00.521Z,24.52
2023-03-12T09:32:29.008Z,25.80
2023-03-12T09:34:56.808Z,14.27
2023-03-12T09:37:24.656Z,22.98
2023-03-12T09:39:53.342Z,25.90
2023-03-12T09:42:28.276Z,30.35
2023-03-12T09:44:59.066Z,20.00
2023-03-12T09:47:37.614Z,19.92
2023-03-12T09:50:27.165Z,30.95
2023-03-12T09:53:02.741Z,27.37
2023-03-12T09:55:39.038Z,23.08
2023-03-12T09:58:27.643Z,26.83
2023-03-12T10:01:12.506Z,32.55
2023-03-12T10:04:14.930Z,25.17
2023-03-12T10:06:51.309Z,36.20
2023-03-12T10:09:37.202Z,30.25
2023-03-12T10:12:20.071Z,29.70
2023-03-12T10:15:24.749Z,24.35
2023-03-12T10:18:06.953Z,35.03
2023-03-12T10:20:53.357Z,28.83
2023-03-12T10:23:24.582Z,22.52
2023-03-12T10:26:12.443Z,24.42
2023-03-12T10:28:49.144Z,36.75
2023-03-12T10:31:27.186Z,25.67
2023-03-12T10:34:00.443Z,24.65
2023-03-12T10:36:40.132Z,22.67
2023-03-12T10:41:46.002Z,25.13
2023-03-12T10:44:21.364Z,23.98
2023-03-12T10:46:52.024Z,21.27
2023-03-12T10:49:22.440Z,23.13
2023-03-12T10:51:56.395Z,26.42
2023-03-12T10:54:28.467Z,20.05
2023-03-12T10:56:56.346Z,26.38
2023-03-12T10:59:29.443Z,23.75
2023-03-12T11:01:57.822Z,17.33
2023-03-12T11:04:31.466Z,20.52
2023-03-12T11:07:23.197Z,16.08
2023-03-12T11:10:17.431Z,34.55
2023-03-12T11:13:01.011Z,26.27
2023-03-12T11:15:32.545Z,32.58
2023-03-12T11:18:22.034Z,23.77
2023-03-12T11:20:53.002Z,23.90
2023-03-12T11:23:30.570Z,25.27
2023-03-12T11:26:11.491Z,20.27
2023-03-12T11:28:45.025Z,23.88
2023-03-12T11:31:19.651Z,22.60
2023-03-12T11:33:47.418Z,27.40
2023-03-12T11:36:26.004Z,18.05
2023-03-12T11:39:10.313Z,21.42
2023-03-12T11:41:37.933Z,26.25
2023-03-12T11:44:14.706Z,21.63
2023-03-12T11:46:53.715Z,21.83
2023-03-12T11:49:49.636Z,26.30
2023-03-12T11:52:31.939Z,19.10
2023-03-12T11:55:16.501Z,28.48
2023-03-12T11:57:58.783Z,21.98
2023-03-12T12:00:52.333Z,27.48
2023-03-12T12:03:20.734Z,20.25
2023-03-12T12:05:54.380Z,22.25
2023-03-12T12:08:53.702Z,20.20
2023-03-12T12:11:45.210Z,20.87
2023-03-12T12:14:52.086Z,26.40
2023-03-12T12:17:25.676Z,22.70
2023-03-12T12:20:21.554Z,22.67
2023-03-12T12:22:57.516Z,17.75
2023-03-12T12:25:30.459Z,30.58
2023-03-12T12:28:17.077Z,12.57
2023-03-12T12:31:22.160Z,23.95
2023-03-12T12:34:08.063Z,17.98
2023-03-12T12:36:36.768Z,15.85
2023-03-12T12:39:26.921Z,19.42
2023-03-12T12:44:36.329Z,15.65
2023-03-12T12:47:06.865Z,15.85
2023-03-12T12:49:57.579Z,24.77
2023-03-12T12:52:27.055Z,23.20
2023-03-12T12:54:57.275Z,18.90
2023-03-12T12:57:37.176Z,19.13
2023-03-12T13:00:42.223Z,23.05
2023-03-12T13:03:17.636Z,21.77
2023-03-12T13:05:54.635Z,25.92
2023-03-12T13:08:44.644Z,22.70
2023-03-12T13:11:20.035Z,26.60
2023-03-12T13:14:06.099Z,17.23
2023-03-12T13:16:37.722Z,19.27
2023-03-12T13:19:14.972Z,24.48
2023-03-12T13:22:00.129Z,18.25
2023-03-12T13:24:54.652Z,23.90
2023-03-12T13:27:42.723Z,22.20
2023-03-12T13:30:35.279Z,18.90
2023-03-12T13:33:11.663Z,25.63
2023-03-12T13:35:39.961Z,18.08
2023-03-12T13:38:12.629Z,27.15
2023-03-12T13:40:56.283Z,19.33
2023-03-12T13:43:35.785Z,22.85
2023-03-12T13:46:16.635Z,26.13
2023-03-12T13:48:46.287Z,18.92
2023-03-12T13:51:20.238Z,26.42
2023-03-12T13:53:55.690Z,17.30
2023-03-12T13:56:29.614Z,20.45
2023-03-12T13:59:01.637Z,30.52
2023-03-12T14:01:43.441Z,21.45
2023-03-12T14:04:35.255Z,32.25
2023-03-12T14:07:21.715Z,23.65
2023-03-12T14:10:08.949Z,19.13
2023-03-12T14:12:54.555Z,22.95
2023-03-12T14:15:50.342Z,19.73
2023-03-12T14:18:24.664Z,18.98
2023-03-12T14:20:58.099Z,19.80
2023-03-12T14:23:35.137Z,18.77
2023-03-12T14:26:04.700Z,35.75
2023-03-12T14:28:38.919Z,23.48
2023-03-12T14:31:21.829Z,16.63
2023-03-12T14:34:04.136Z,15.15
2023-03-12T14:36:49.217Z,22.73
2023-03-12T14:39:25.581Z,22.20
2023-03-12T14:42:06.861Z,18.50
2023-03-12T14:44:37.664Z,26.10
2023-03-12T14:47:11.530Z,21.08
2023-03-12T14:49:41.991Z,24.52
2023-03-12T14:52:23.938Z,20.13
2023-03-12T14:55:04.735Z,25.00
2023-03-12T14:57:32.526Z,17.02
2023-03-12T15:00:01.523Z,16.70
2023-03-12T15:02:31.667Z,20.85
2023-03-12T15:07:35.207Z,19.90
2023-03-12T15:10:07.136Z,22.58
2023-03-12T15:12:37.985Z,18.77
2023-03-12T15:15:18.402Z,21.85
2023-03-12T15:17:46.034Z,19.42
2023-03-12T15:20:16.269Z,22.08
2023-03-12T15:22:44.322Z,23.05
2023-03-12T15:25:25.659Z,18.35
2023-03-12T15:28:26.589Z,15.35
2023-03-12T15:31:11.796Z,17.65
2023-03-12T15:33:42.473Z,14.82
2023-03-12T15:38:48.658Z,16.63
2023-03-12T15:41:27.830Z,17.30
2023-03-12T15:43:58.093Z,18.83
2023-03-12T15:46:27.285Z,22.85
2023-03-12T15:48:58.602Z,13.35
2023-03-12T15:51:34.977Z,14.02
2023-03-12T15:54:13.696Z,18.27
2023-03-12T15:56:41.556Z,13.10
2023-03-12T15:59:17.926Z,15.73
2023-03-12T16:01:48.563Z,11.13
2023-03-12T16:04:16.717Z,13.55
2023-03-12T16:06:48.829Z,15.48
2023-03-12T16:09:35.253Z,12.27
2023-03-12T16:12:03.228Z,15.50
2023-03-12T16:14:34.632Z,14.60
2023-03-12T16:17:02.804Z,12.45
2023-03-12T16:19:34.303Z,5.68
2023-03-12T16:22:01.951Z,8.60
2023-03-12T16:24:29.487Z,8.38
2023-03-12T16:27:00.267Z,8.35
2023-03-12T16:29:37.113Z,3.67
2023-03-12T16:32:15.558Z,4.60
2023-03-12T16:34:45.005Z,5.65
2023-03-12T16:37:13.649Z,5.50
2023-03-12T16:39:41.286Z,6.50
2023-03-12T16:42:20.469Z,5.57
2023-03-12T16:44:48.322Z,5.38
2023-03-12T16:47:16.392Z,4.53
2023-03-12T16:49:44.543Z,9.25
2023-03-12T16:52:26.838Z,3.67
2023-03-12T16:54:54.479Z,4.53
2023-03-12T16:57:29.364Z,5.85
2023-03-12T16:59:59.765Z,5.35
2023-03-12T17:02:29.875Z,5.68
2023-03-12T17:04:57.698Z,2.30
2023-03-12T17:07:25.343Z,4.38
2023-03-12T17:09:53.361Z,4.40
2023-03-12T17:12:36.427Z,1.08
2023-03-12T17:15:35.634Z,9.63
2023-03-12T17:18:04.459Z,6.37
2023-03-12T17:20:36.392Z,5.30
2023-03-12T17:23:05.197Z,8.65
2023-03-12T17:25:35.988Z,5.93
2023-03-12T17:28:04.007Z,3.70
2023-03-12T17:30:32.260Z,7.28
2023-03-12T17:33:05.213Z,7.53
2023-03-12T17:35:33.495Z,4.03
2023-03-12T17:38:01.500Z,2.85
2023-03-12T17:40:29.568Z,4.68
2023-03-12T17:42:57.261Z,6.97
2023-03-12T17:45:25.393Z,4.57
2023-03-12T17:47:52.961Z,5.22
2023-03-12T17:50:20.650Z,5.35
2023-03-12T17:52:48.183Z,4.93
2023-03-12T17:55:16.092Z,3.20
2023-03-12T17:57:44.745Z,2.33
2023-03-12T18:00:13.109Z,7.57
2023-03-12T18:02:42.774Z,5.32
2023-03-12T18:05:11.941Z,2.08
2023-03-12T18:07:40.035Z,2.13
2023-03-12T18:10:11.125Z,3.35
2023-03-12T18:12:40.181Z,1.80
2023-03-12T18:15:13.297Z,3.87
2023-03-12T18:17:41.886Z,8.05
2023-03-12T18:20:12.627Z,1.45
2023-03-12T18:22:41.165Z,1.13
2023-03-12T18:25:09.979Z,3.88
2023-03-12T18:27:37.681Z,2.50
2023-03-12T18:30:08.271Z,4.05
2023-03-12T18:32:35.929Z,3.45
2023-03-12T18:35:03.978Z,6.82
2023-03-12T18:37:32.181Z,2.05
2023-03-12T18:39:59.817Z,6.50
2023-03-12T18:42:27.698Z,4.70
2023-03-12T18:44:55.319Z,4.93
2023-03-12T18:47:23.228Z,7.65
2023-03-12T18:49:55.004Z,5.47
2023-03-12T18:52:23.030Z,8.70
2023-03-12T18:54:50.758Z,5.75
2023-03-12T18:57:18.450Z,11.82
2023-03-12T18:59:47.179Z,10.18
2023-03-12T19:02:15.041Z,11.48
2023-03-12T19:04:42.710Z,5.20
2023-03-12T19:07:28.327Z,11.35
2023-03-12T19:09:55.891Z,12.00
2023-03-12T19:12:23.435Z,4.57
2023-03-12T19:14:51.050Z,6.53
2023-03-12T19:17:18.742Z,17.55
2023-03-12T19:19:46.341Z,21.88
2023-03-12T19:22:13.883Z,8.32
2023-03-12T19:24:44.963Z,8.80
2023-03-12T19:27:12.629Z,13.23
2023-03-12T19:29:40.237Z,10.32
2023-03-12T19:32:08.018Z,6.38
2023-03-12T19:34:35.680Z,5.35
2023-03-12T19:37:03.324Z,4.80
2023-03-12T19:39:30.857Z,9.98
2023-03-12T19:41:59.341Z,6.70
2023-03-12T19:44:26.939Z,8.48
2023-03-12T19:46:54.605Z,8.43
2023-03-12T19:49:22.445Z,5.32
2023-03-12T19:51:50.008Z,7.90
2023-03-12T19:54:17.705Z,4.85
2023-03-12T19:56:45.358Z,4.60
2023-03-12T19:59:12.969Z,4.97
2023-03-12T20:01:41.448Z,7.20
2023-03-12T20:04:10.405Z,6.50
2023-03-12T20:06:38.872Z,4.55
2023-03-12T20:09:06.507Z,6.28
2023-03-12T20:11:35.734Z,5.90
2023-03-12T20:14:04.695Z,8.43
2023-03-12T20:16:32.371Z,6.78
2023-03-12T20:18:59.926Z,4.95
2023-03-12T20:21:29.567Z,8.27
2023-03-12T20:23:58.646Z,4.70
2023-03-12T20:26:26.344Z,10.50
2023-03-12T20:28:53.866Z,7.72
2023-03-12T20:31:21.579Z,8.30
2023-03-12T20:33:49.084Z,7.07
2023-03-12T20:36:16.767Z,7.90
2023-03-12T20:38:44.427Z,9.18
2023-03-12T20:41:14.090Z,10.13
2023-03-12T20:43:42.785Z,8.07
2023-03-12T20:46:11.308Z,9.68
2023-03-12T20:48:38.956Z,13.25
2023-03-12T20:51:06.637Z,10.68
2023-03-12T20:53:34.384Z,10.20
2023-03-12T20:56:02.529Z,10.43
2023-03-12T20:58:30.011Z,7.93
2023-03-12T21:01:00.694Z,16.55
2023-03-12T21:03:28.563Z,10.45
2023-03-12T21:05:58.451Z,12.02
2023-03-12T21:08:26.128Z,7.88
2023-03-12T21:10:54.163Z,7.93
2023-03-12T21:13:23.341Z,10.18
2023-03-12T21:15:51.003Z,5.87
2023-03-12T21:18:18.933Z,6.60
2023-03-12T21:20:46.784Z,6.50
2023-03-12T21:23:14.537Z,5.90
2023-03-12T21:25:42.536Z,4.97
2023-03-12T21:28:10.767Z,4.82
2023-03-12T21:30:38.748Z,8.07
2023-03-12T21:33:07.375Z,4.35
2023-03-12T21:35:35.018Z,5.47
2023-03-12T21:38:02.770Z,6.95
2023-03-12T21:40:30.407Z,5.57
2023-03-12T21:42:57.989Z,4.15
2023-03-12T21:45:25.728Z,8.15
2023-03-12T21:47:54.055Z,6.57
2023-03-12T21:50:21.861Z,6.57
2023-03-12T21:52:50.875Z,5.40
2023-03-12T21:55:18.902Z,4.63
2023-03-12T21:57:47.236Z,5.35
2023-03-12T22:00:15.207Z,6.70
2023-03-12T22:02:44.647Z,6.05
2023-03-12T22:05:12.684Z,5.05
2023-03-12T22:07:40.359Z,4.70
2023-03-12T22:10:11.856Z,5.97
2023-03-12T22:12:40.037Z,3.83
2023-03-12T22:15:08.880Z,2.45
2023-03-12T22:17:36.550Z,4.57
2023-03-12T22:20:05.075Z,4.40
2023-03-12T22:22:33.640Z,3.60
2023-03-12T22:25:01.220Z,2.97
2023-03-12T22:27:28.800Z,3.50
2023-03-12T22:29:57.457Z,4.05
2023-03-12T22:32:25.811Z,5.60
2023-03-12T22:34:53.430Z,5.10
2023-03-12T22:37:21.164Z,6.05
2023-03-12T22:39:48.777Z,4.85
2023-03-12T22:42:16.348Z,5.43
2023-03-12T22:44:43.891Z,4.78
2023-03-12T22:47:11.412Z,6.18
2023-03-12T22:49:38.906Z,4.68
2023-03-12T22:52:06.802Z,5.00
2023-03-12T22:54:34.692Z,3.83
2023-03-12T22:57:02.251Z,4.28
2023-03-12T22:59:29.931Z,4.72
2023-03-12T23:01:57.704Z,5.90
2023-03-12T23:04:25.358Z,4.25
2023-03-12T23:06:59.102Z,5.20
2023-03-12T23:09:32.166Z,4.13
2023-03-12T23:11:59.750Z,4.18
2023-03-12T23:14:27.332Z,5.25
2023-03-12T23:16:57.564Z,4.68
2023-03-12T23:19:25.329Z,4.63
2023-03-12T23:21:53.196Z,3.83
2023-03-12T23:24:22.174Z,6.85
2023-03-12T23:26:49.723Z,4.13
2023-03-12T23:29:17.452Z,5.85
2023-03-12T23:31:45.098Z,2.75
2023-03-12T23:34:12.737Z,7.30
2023-03-12T23:36:40.733Z,4.72
2023-03-12T23:39:08.386Z,2.25
2023-03-12T23:41:37.730Z,7.75
2023-03-12T23:44:05.566Z,2.85
2023-03-12T23:46:33.542Z,2.80
2023-03-12T23:49:01.275Z,2.78
2023-03-12T23:51:31.707Z,2.58
2023-03-12T23:54:01.901Z,1.88
2023-03-12T23:56:35.333Z,1.27
2023-03-12T23:59:04.222Z,1.80
